Garfield, MN (56332)

11:21 PM CDT on July 29, 2014 (GMT -0500)
Gardonville (KMNBRAND2) Elev 1411 ft | 45.96 °N, 95.60 °W | Change Station

Current weather conditions updated 1 second ago

Clear
Clear
65.1 °F
Feels Like 65.1 °F
N
1.0
Wind Variable Wind from North
Gusts 3.0 mph

Tomorrow is forecast to be Warmer than today.

Today
High -- | Low -- °F
--% Chance of Precip.
Yesterday
High -- | Low -- °F
Precip. -- in
6:00 AM 8:55 PM
Waxing Crescent, 9% visible
Pressure 30.12 in
Visibility 10.0 miles
Clouds Clear
Dew Point 56 °F
Humidity 71%
Rainfall 0.00 in
Snow Depth Not available.
UV 0 out of 12
Pollen 6.60 out of 12
Air Quality Not available.
Flu Activity Not available.
METAR KAXN 300353Z AUTO 33005KT 10SM CLR 18/13 A3013 RMK AO2 SLP199 T01830128

More Conditions Fewer Conditions

Pressure 30.12 in
Visibility 10.0 miles
Clouds Clear
Dew Point 56 °F
Humidity 71%
Rainfall 0.00 in
Snow Depth Not available.
UV 0 out of 12
Pollen 6.60 out of 12
Air Quality Not available.
Flu Activity Not available.
METAR KAXN 300353Z AUTO 33005KT 10SM CLR 18/13 A3013 RMK AO2 SLP199 T01830128

More Conditions Fewer Conditions

10-Day Weather Forecast

Almanac

Astronomy

Jul. 29, 2014 Rise Set
Actual Time 6:00 AM CDT 8:55 PM CDT
Civil Twilight 5:25 AM CDT 9:30 PM CDT
Nautical Twilight 4:40 AM CDT 10:14 PM CDT
Astronomical Twilight 3:47 AM CDT 11:07 PM CDT
Moon 8:49 AM CDT (7/29) 9:54 PM CDT (7/29)
Length of Visible Light 16h 04m
Length of Day
14h 54m
Tomorrow will be 2m 25s shorter.
Waxing Crescent, 9% of the Moon is Illuminated
Jul 30
Waxing Crescent
Aug 3
First Quarter
Aug 10
Full
Aug 17
Last Quarter
Aug 25
New

Today's Extremes

State Highs State Lows

Community

WunderPhotos

Upload Photos

1,738,995 photos uploaded!

WunderBlogs® & News

By Dr. Jeff Masters
Director of Meteorology, Weather Underground
By Kari Strenfel
Meteorologist, Weather Underground
By Christopher C. Burt
Weather Historian, Weather Underground
July 29, 2014
July 29, 2014
July 29, 2014

Nearby

Snow Depth

Station Depth Elevation
No new snow has been reported.

Earthquake Activity

City Distance Mag. Time & Date
No recent earthquake activity has been reported nearby.
Minimum magnitude displayed is 2.5.

Coastal Water Temperatures

Place Temperature
No Stations Reporting

Nearby Weather Stations

Station Location Temp. Dew Point Humidity Wind Precip. Elev Updated Type
Gardonville, Brandon, MN 65.1 °F 56 °F 71% North  at  1.0 mph 0.00 in / hr 1411 ft 11:21 PM CDT Rapid Fire
Hoffman MN, Hoffman, MN 59.4 °F 55 °F 86% North  at  0.0 mph 0.00 in / hr 1240 ft 11:20 PM CDT Normal

Show More Stations Show Fewer Stations